sensor_id;sensor_type;location;lat;lon;timestamp;P1;durP1;ratioP1;P2;durP2;ratioP2
75021;SDS011;63583;49.976;20.182;2023-05-10T00:01:38;5.63;;;2.60;;
75021;SDS011;63583;49.976;20.182;2023-05-10T00:04:03;6.03;;;3.20;;
75021;SDS011;63583;49.976;20.182;2023-05-10T00:06:29;6.88;;;3.30;;
75021;SDS011;63583;49.976;20.182;2023-05-10T00:08:55;5.93;;;3.40;;
75021;SDS011;63583;49.976;20.182;2023-05-10T00:11:21;6.35;;;3.30;;
75021;SDS011;63583;49.976;20.182;2023-05-10T00:13:46;7.70;;;3.55;;
75021;SDS011;63583;49.976;20.182;2023-05-10T00:16:12;8.02;;;3.72;;
75021;SDS011;63583;49.976;20.182;2023-05-10T00:18:39;6.30;;;3.08;;
75021;SDS011;63583;49.976;20.182;2023-05-10T00:21:05;5.80;;;2.85;;
75021;SDS011;63583;49.976;20.182;2023-05-10T00:23:31;7.70;;;3.45;;
75021;SDS011;63583;49.976;20.182;2023-05-10T00:25:57;6.35;;;3.70;;
75021;SDS011;63583;49.976;20.182;2023-05-10T00:28:22;5.93;;;3.20;;
75021;SDS011;63583;49.976;20.182;2023-05-10T00:30:48;6.57;;;3.75;;
75021;SDS011;63583;49.976;20.182;2023-05-10T00:33:14;5.82;;;3.22;;
75021;SDS011;63583;49.976;20.182;2023-05-10T00:35:39;6.28;;;3.58;;
75021;SDS011;63583;49.976;20.182;2023-05-10T00:38:05;6.45;;;3.53;;
75021;SDS011;63583;49.976;20.182;2023-05-10T00:40:31;6.30;;;3.55;;
75021;SDS011;63583;49.976;20.182;2023-05-10T00:42:57;6.05;;;3.42;;
75021;SDS011;63583;49.976;20.182;2023-05-10T00:45:23;7.70;;;3.38;;
75021;SDS011;63583;49.976;20.182;2023-05-10T00:47:50;6.80;;;3.80;;
75021;SDS011;63583;49.976;20.182;2023-05-10T00:50:20;5.97;;;3.50;;
75021;SDS011;63583;49.976;20.182;2023-05-10T00:52:47;4.38;;;2.90;;
75021;SDS011;63583;49.976;20.182;2023-05-10T00:55:13;5.85;;;3.53;;
75021;SDS011;63583;49.976;20.182;2023-05-10T00:57:38;6.85;;;3.42;;
75021;SDS011;63583;49.976;20.182;2023-05-10T01:00:05;7.13;;;3.92;;
75021;SDS011;63583;49.976;20.182;2023-05-10T01:02:31;7.28;;;4.07;;
75021;SDS011;63583;49.976;20.182;2023-05-10T01:04:58;6.40;;;3.67;;
75021;SDS011;63583;49.976;20.182;2023-05-10T01:07:24;6.90;;;3.58;;
75021;SDS011;63583;49.976;20.182;2023-05-10T01:09:50;7.65;;;3.53;;
75021;SDS011;63583;49.976;20.182;2023-05-10T01:12:16;6.03;;;3.55;;
75021;SDS011;63583;49.976;20.182;2023-05-10T01:14:42;7.22;;;3.38;;
75021;SDS011;63583;49.976;20.182;2023-05-10T01:17:08;6.68;;;3.25;;
75021;SDS011;63583;49.976;20.182;2023-05-10T01:19:35;6.32;;;3.28;;
75021;SDS011;63583;49.976;20.182;2023-05-10T01:30:42;6.53;;;2.92;;
75021;SDS011;63583;49.976;20.182;2023-05-10T01:39:11;6.40;;;3.40;;
75021;SDS011;63583;49.976;20.182;2023-05-10T01:44:32;8.02;;;2.80;;
75021;SDS011;63583;49.976;20.182;2023-05-10T01:47:12;5.00;;;3.00;;
75021;SDS011;63583;49.976;20.182;2023-05-10T01:49:49;4.68;;;2.85;;
75021;SDS011;63583;49.976;20.182;2023-05-10T01:52:18;6.18;;;3.33;;
75021;SDS011;63583;49.976;20.182;2023-05-10T01:54:50;6.95;;;3.55;;
75021;SDS011;63583;49.976;20.182;2023-05-10T01:57:20;5.85;;;3.70;;
75021;SDS011;63583;49.976;20.182;2023-05-10T01:59:50;6.03;;;3.05;;
75021;SDS011;63583;49.976;20.182;2023-05-10T02:02:18;6.57;;;3.60;;
75021;SDS011;63583;49.976;20.182;2023-05-10T02:04:45;6.55;;;3.35;;
75021;SDS011;63583;49.976;20.182;2023-05-10T02:07:13;4.70;;;2.80;;
75021;SDS011;63583;49.976;20.182;2023-05-10T02:09:39;6.22;;;2.70;;
75021;SDS011;63583;49.976;20.182;2023-05-10T02:12:07;5.03;;;3.17;;
75021;SDS011;63583;49.976;20.182;2023-05-10T02:14:34;5.55;;;2.90;;
75021;SDS011;63583;49.976;20.182;2023-05-10T02:17:02;6.43;;;3.15;;
75021;SDS011;63583;49.976;20.182;2023-05-10T02:19:30;6.05;;;3.10;;
75021;SDS011;63583;49.976;20.182;2023-05-10T02:21:58;5.03;;;3.03;;
75021;SDS011;63583;49.976;20.182;2023-05-10T02:24:25;5.97;;;2.72;;
75021;SDS011;63583;49.976;20.182;2023-05-10T02:26:53;6.50;;;3.05;;
75021;SDS011;63583;49.976;20.182;2023-05-10T02:29:21;4.50;;;3.00;;
75021;SDS011;63583;49.976;20.182;2023-05-10T02:31:49;5.47;;;3.30;;
75021;SDS011;63583;49.976;20.182;2023-05-10T02:34:17;7.13;;;3.35;;
75021;SDS011;63583;49.976;20.182;2023-05-10T02:36:44;5.63;;;3.03;;
75021;SDS011;63583;49.976;20.182;2023-05-10T02:39:10;4.97;;;3.05;;
75021;SDS011;63583;49.976;20.182;2023-05-10T02:41:40;6.45;;;3.10;;
75021;SDS011;63583;49.976;20.182;2023-05-10T02:44:06;4.95;;;3.47;;
75021;SDS011;63583;49.976;20.182;2023-05-10T02:46:33;7.05;;;3.30;;
75021;SDS011;63583;49.976;20.182;2023-05-10T02:48:59;8.50;;;3.38;;
75021;SDS011;63583;49.976;20.182;2023-05-10T02:51:27;7.57;;;3.58;;
75021;SDS011;63583;49.976;20.182;2023-05-10T02:53:56;4.95;;;2.85;;
75021;SDS011;63583;49.976;20.182;2023-05-10T02:56:24;7.05;;;3.13;;
75021;SDS011;63583;49.976;20.182;2023-05-10T02:58:53;6.97;;;3.15;;
75021;SDS011;63583;49.976;20.182;2023-05-10T03:01:20;5.50;;;3.28;;
75021;SDS011;63583;49.976;20.182;2023-05-10T03:03:45;5.85;;;3.03;;
75021;SDS011;63583;49.976;20.182;2023-05-10T03:06:11;4.20;;;2.72;;
75021;SDS011;63583;49.976;20.182;2023-05-10T03:08:37;6.22;;;2.95;;
75021;SDS011;63583;49.976;20.182;2023-05-10T03:11:23;4.85;;;2.85;;
75021;SDS011;63583;49.976;20.182;2023-05-10T03:14:13;5.43;;;2.60;;
75021;SDS011;63583;49.976;20.182;2023-05-10T03:16:52;7.40;;;3.05;;
75021;SDS011;63583;49.976;20.182;2023-05-10T03:19:22;5.93;;;3.22;;
75021;SDS011;63583;49.976;20.182;2023-05-10T03:21:52;8.70;;;3.58;;
75021;SDS011;63583;49.976;20.182;2023-05-10T03:24:22;4.05;;;2.50;;
75021;SDS011;63583;49.976;20.182;2023-05-10T03:26:52;5.70;;;3.30;;
75021;SDS011;63583;49.976;20.182;2023-05-10T03:29:21;6.18;;;2.95;;
75021;SDS011;63583;49.976;20.182;2023-05-10T03:31:49;5.03;;;3.08;;
75021;SDS011;63583;49.976;20.182;2023-05-10T03:34:15;6.35;;;3.33;;
75021;SDS011;63583;49.976;20.182;2023-05-10T03:36:40;5.00;;;2.95;;
75021;SDS011;63583;49.976;20.182;2023-05-10T03:39:06;5.30;;;2.72;;
75021;SDS011;63583;49.976;20.182;2023-05-10T03:41:32;6.50;;;3.00;;
75021;SDS011;63583;49.976;20.182;2023-05-10T03:43:57;5.38;;;3.35;;
75021;SDS011;63583;49.976;20.182;2023-05-10T03:46:23;5.70;;;2.97;;
75021;SDS011;63583;49.976;20.182;2023-05-10T03:48:48;7.35;;;3.22;;
75021;SDS011;63583;49.976;20.182;2023-05-10T03:51:14;7.13;;;3.70;;
75021;SDS011;63583;49.976;20.182;2023-05-10T03:53:39;5.13;;;2.95;;
75021;SDS011;63583;49.976;20.182;2023-05-10T03:56:05;6.18;;;3.17;;
75021;SDS011;63583;49.976;20.182;2023-05-10T03:58:31;5.82;;;3.30;;
75021;SDS011;63583;49.976;20.182;2023-05-10T04:00:56;5.25;;;2.83;;
75021;SDS011;63583;49.976;20.182;2023-05-10T04:03:22;4.93;;;2.90;;
75021;SDS011;63583;49.976;20.182;2023-05-10T04:05:48;5.05;;;3.00;;
75021;SDS011;63583;49.976;20.182;2023-05-10T04:08:13;6.18;;;3.47;;
75021;SDS011;63583;49.976;20.182;2023-05-10T04:10:41;12.43;;;3.42;;
75021;SDS011;63583;49.976;20.182;2023-05-10T04:13:07;6.28;;;3.08;;
75021;SDS011;63583;49.976;20.182;2023-05-10T04:15:32;5.00;;;2.65;;
75021;SDS011;63583;49.976;20.182;2023-05-10T04:17:58;4.70;;;3.00;;
75021;SDS011;63583;49.976;20.182;2023-05-10T04:20:24;4.53;;;2.65;;
75021;SDS011;63583;49.976;20.182;2023-05-10T04:22:49;6.35;;;3.00;;
75021;SDS011;63583;49.976;20.182;2023-05-10T04:25:15;6.13;;;3.10;;
75021;SDS011;63583;49.976;20.182;2023-05-10T04:27:40;5.00;;;3.03;;
75021;SDS011;63583;49.976;20.182;2023-05-10T04:30:06;8.07;;;3.45;;
75021;SDS011;63583;49.976;20.182;2023-05-10T04:32:32;5.85;;;3.25;;
75021;SDS011;63583;49.976;20.182;2023-05-10T04:34:58;7.68;;;2.97;;
75021;SDS011;63583;49.976;20.182;2023-05-10T04:37:24;5.45;;;2.53;;
75021;SDS011;63583;49.976;20.182;2023-05-10T04:39:49;6.35;;;3.30;;
75021;SDS011;63583;49.976;20.182;2023-05-10T04:42:15;6.10;;;3.00;;
75021;SDS011;63583;49.976;20.182;2023-05-10T04:44:41;4.82;;;3.10;;
75021;SDS011;63583;49.976;20.182;2023-05-10T04:47:07;6.00;;;3.20;;
75021;SDS011;63583;49.976;20.182;2023-05-10T04:49:32;6.15;;;3.30;;
75021;SDS011;63583;49.976;20.182;2023-05-10T04:51:58;6.05;;;3.50;;
75021;SDS011;63583;49.976;20.182;2023-05-10T04:54:23;4.45;;;3.22;;
75021;SDS011;63583;49.976;20.182;2023-05-10T04:56:49;8.65;;;3.47;;
75021;SDS011;63583;49.976;20.182;2023-05-10T04:59:15;6.72;;;3.22;;
75021;SDS011;63583;49.976;20.182;2023-05-10T05:01:41;6.45;;;3.58;;
75021;SDS011;63583;49.976;20.182;2023-05-10T05:04:06;6.28;;;3.17;;
75021;SDS011;63583;49.976;20.182;2023-05-10T05:06:32;7.60;;;3.67;;
75021;SDS011;63583;49.976;20.182;2023-05-10T05:08:57;6.47;;;4.05;;
75021;SDS011;63583;49.976;20.182;2023-05-10T05:11:23;6.60;;;3.63;;
75021;SDS011;63583;49.976;20.182;2023-05-10T05:13:48;5.63;;;3.28;;
75021;SDS011;63583;49.976;20.182;2023-05-10T05:16:14;6.28;;;3.60;;
75021;SDS011;63583;49.976;20.182;2023-05-10T05:18:40;5.53;;;3.60;;
75021;SDS011;63583;49.976;20.182;2023-05-10T05:21:15;5.43;;;3.35;;
75021;SDS011;63583;49.976;20.182;2023-05-10T05:23:41;5.75;;;3.67;;
75021;SDS011;63583;49.976;20.182;2023-05-10T05:26:07;6.35;;;3.85;;
75021;SDS011;63583;49.976;20.182;2023-05-10T05:28:33;4.63;;;3.30;;
75021;SDS011;63583;49.976;20.182;2023-05-10T05:31:05;5.60;;;3.65;;
75021;SDS011;63583;49.976;20.182;2023-05-10T05:33:32;6.30;;;4.30;;
75021;SDS011;63583;49.976;20.182;2023-05-10T05:36:02;8.07;;;4.18;;
75021;SDS011;63583;49.976;20.182;2023-05-10T05:38:28;7.50;;;4.22;;
75021;SDS011;63583;49.976;20.182;2023-05-10T05:40:54;8.35;;;4.00;;
75021;SDS011;63583;49.976;20.182;2023-05-10T05:43:19;6.93;;;4.03;;
75021;SDS011;63583;49.976;20.182;2023-05-10T05:45:45;8.57;;;4.50;;
75021;SDS011;63583;49.976;20.182;2023-05-10T05:48:10;7.60;;;4.30;;
75021;SDS011;63583;49.976;20.182;2023-05-10T05:50:36;7.72;;;4.47;;
75021;SDS011;63583;49.976;20.182;2023-05-10T05:53:02;6.28;;;3.90;;
75021;SDS011;63583;49.976;20.182;2023-05-10T05:55:27;7.38;;;4.13;;
75021;SDS011;63583;49.976;20.182;2023-05-10T05:57:54;7.70;;;4.47;;
75021;SDS011;63583;49.976;20.182;2023-05-10T06:00:20;5.95;;;4.28;;
75021;SDS011;63583;49.976;20.182;2023-05-10T06:02:46;7.18;;;4.00;;
75021;SDS011;63583;49.976;20.182;2023-05-10T06:05:12;7.30;;;4.10;;
75021;SDS011;63583;49.976;20.182;2023-05-10T06:07:39;8.57;;;4.20;;
75021;SDS011;63583;49.976;20.182;2023-05-10T06:10:07;5.68;;;3.60;;
75021;SDS011;63583;49.976;20.182;2023-05-10T06:12:34;7.72;;;3.85;;
75021;SDS011;63583;49.976;20.182;2023-05-10T06:15:00;7.28;;;4.47;;
75021;SDS011;63583;49.976;20.182;2023-05-10T06:17:25;5.88;;;3.72;;
75021;SDS011;63583;49.976;20.182;2023-05-10T06:19:51;6.95;;;3.92;;
75021;SDS011;63583;49.976;20.182;2023-05-10T06:22:17;6.00;;;3.88;;
75021;SDS011;63583;49.976;20.182;2023-05-10T06:24:42;6.50;;;3.90;;
75021;SDS011;63583;49.976;20.182;2023-05-10T06:27:08;6.70;;;3.45;;
75021;SDS011;63583;49.976;20.182;2023-05-10T06:29:34;6.75;;;3.67;;
75021;SDS011;63583;49.976;20.182;2023-05-10T06:32:00;6.78;;;3.55;;
75021;SDS011;63583;49.976;20.182;2023-05-10T06:34:25;5.55;;;3.15;;
75021;SDS011;63583;49.976;20.182;2023-05-10T06:36:51;5.63;;;3.15;;
75021;SDS011;63583;49.976;20.182;2023-05-10T06:39:17;4.63;;;3.10;;
75021;SDS011;63583;49.976;20.182;2023-05-10T06:41:43;5.60;;;2.75;;
75021;SDS011;63583;49.976;20.182;2023-05-10T06:44:09;5.43;;;3.33;;
75021;SDS011;63583;49.976;20.182;2023-05-10T06:46:35;4.45;;;2.75;;
75021;SDS011;63583;49.976;20.182;2023-05-10T06:49:01;4.43;;;3.05;;
75021;SDS011;63583;49.976;20.182;2023-05-10T06:51:27;5.38;;;2.97;;
75021;SDS011;63583;49.976;20.182;2023-05-10T06:53:52;5.25;;;2.80;;
75021;SDS011;63583;49.976;20.182;2023-05-10T06:56:18;4.30;;;2.72;;
75021;SDS011;63583;49.976;20.182;2023-05-10T06:58:46;4.47;;;3.13;;
75021;SDS011;63583;49.976;20.182;2023-05-10T07:03:40;4.75;;;2.92;;
75021;SDS011;63583;49.976;20.182;2023-05-10T07:06:06;4.45;;;2.70;;
75021;SDS011;63583;49.976;20.182;2023-05-10T07:08:32;4.80;;;3.22;;
75021;SDS011;63583;49.976;20.182;2023-05-10T07:11:02;6.18;;;2.85;;
75021;SDS011;63583;49.976;20.182;2023-05-10T07:13:32;4.38;;;2.78;;
75021;SDS011;63583;49.976;20.182;2023-05-10T07:15:58;5.15;;;2.60;;
75021;SDS011;63583;49.976;20.182;2023-05-10T07:18:24;3.40;;;2.20;;
75021;SDS011;63583;49.976;20.182;2023-05-10T07:20:50;3.38;;;2.17;;
75021;SDS011;63583;49.976;20.182;2023-05-10T07:23:16;6.85;;;2.70;;
75021;SDS011;63583;49.976;20.182;2023-05-10T07:25:47;5.97;;;2.45;;
75021;SDS011;63583;49.976;20.182;2023-05-10T07:28:13;4.13;;;2.47;;
75021;SDS011;63583;49.976;20.182;2023-05-10T07:30:39;4.35;;;2.30;;
75021;SDS011;63583;49.976;20.182;2023-05-10T07:33:06;3.95;;;2.22;;
75021;SDS011;63583;49.976;20.182;2023-05-10T07:35:33;4.90;;;2.40;;
75021;SDS011;63583;49.976;20.182;2023-05-10T07:37:59;4.75;;;2.63;;
75021;SDS011;63583;49.976;20.182;2023-05-10T07:40:25;5.47;;;2.63;;
75021;SDS011;63583;49.976;20.182;2023-05-10T07:42:50;4.32;;;2.40;;
75021;SDS011;63583;49.976;20.182;2023-05-10T07:45:16;4.78;;;2.63;;
75021;SDS011;63583;49.976;20.182;2023-05-10T07:47:42;3.38;;;2.25;;
75021;SDS011;63583;49.976;20.182;2023-05-10T07:50:07;3.22;;;2.33;;
75021;SDS011;63583;49.976;20.182;2023-05-10T07:52:33;4.20;;;2.45;;
75021;SDS011;63583;49.976;20.182;2023-05-10T07:54:59;4.90;;;2.13;;
75021;SDS011;63583;49.976;20.182;2023-05-10T07:57:24;3.95;;;2.65;;
75021;SDS011;63583;49.976;20.182;2023-05-10T07:59:50;4.05;;;2.20;;
75021;SDS011;63583;49.976;20.182;2023-05-10T08:02:16;3.40;;;2.13;;
75021;SDS011;63583;49.976;20.182;2023-05-10T08:04:41;4.50;;;2.30;;
75021;SDS011;63583;49.976;20.182;2023-05-10T08:07:07;3.90;;;2.45;;
75021;SDS011;63583;49.976;20.182;2023-05-10T08:09:33;3.75;;;2.28;;
75021;SDS011;63583;49.976;20.182;2023-05-10T08:11:58;3.80;;;2.28;;
75021;SDS011;63583;49.976;20.182;2023-05-10T08:14:25;4.70;;;2.20;;
75021;SDS011;63583;49.976;20.182;2023-05-10T08:16:52;3.15;;;2.03;;
75021;SDS011;63583;49.976;20.182;2023-05-10T08:19:17;3.50;;;2.15;;
75021;SDS011;63583;49.976;20.182;2023-05-10T08:21:45;4.38;;;2.10;;
75021;SDS011;63583;49.976;20.182;2023-05-10T08:24:11;3.03;;;1.85;;
75021;SDS011;63583;49.976;20.182;2023-05-10T08:26:36;5.35;;;2.40;;
75021;SDS011;63583;49.976;20.182;2023-05-10T08:29:02;3.35;;;1.98;;
75021;SDS011;63583;49.976;20.182;2023-05-10T08:31:27;3.45;;;2.17;;
75021;SDS011;63583;49.976;20.182;2023-05-10T08:33:53;4.53;;;2.10;;
75021;SDS011;63583;49.976;20.182;2023-05-10T08:36:19;3.55;;;2.22;;
75021;SDS011;63583;49.976;20.182;2023-05-10T08:38:49;4.53;;;2.42;;
75021;SDS011;63583;49.976;20.182;2023-05-10T08:41:15;6.35;;;2.20;;
75021;SDS011;63583;49.976;20.182;2023-05-10T08:43:41;3.42;;;2.30;;
75021;SDS011;63583;49.976;20.182;2023-05-10T08:46:11;3.72;;;2.20;;
75021;SDS011;63583;49.976;20.182;2023-05-10T08:48:42;4.63;;;2.03;;
75021;SDS011;63583;49.976;20.182;2023-05-10T08:51:09;3.40;;;2.10;;
75021;SDS011;63583;49.976;20.182;2023-05-10T08:53:37;3.45;;;2.10;;
75021;SDS011;63583;49.976;20.182;2023-05-10T08:56:02;3.22;;;2.10;;
75021;SDS011;63583;49.976;20.182;2023-05-10T08:58:29;3.78;;;2.63;;
75021;SDS011;63583;49.976;20.182;2023-05-10T09:00:54;5.25;;;2.22;;
75021;SDS011;63583;49.976;20.182;2023-05-10T09:03:22;3.70;;;2.08;;
75021;SDS011;63583;49.976;20.182;2023-05-10T09:05:48;2.90;;;1.92;;
75021;SDS011;63583;49.976;20.182;2023-05-10T09:08:14;2.83;;;2.00;;
75021;SDS011;63583;49.976;20.182;2023-05-10T09:10:43;3.53;;;2.10;;
75021;SDS011;63583;49.976;20.182;2023-05-10T09:13:12;4.18;;;2.13;;
75021;SDS011;63583;49.976;20.182;2023-05-10T09:15:39;2.80;;;1.98;;
75021;SDS011;63583;49.976;20.182;2023-05-10T09:18:05;4.50;;;3.10;;
75021;SDS011;63583;49.976;20.182;2023-05-10T09:20:30;3.25;;;2.00;;
75021;SDS011;63583;49.976;20.182;2023-05-10T09:22:56;2.92;;;1.90;;
75021;SDS011;63583;49.976;20.182;2023-05-10T09:25:22;5.22;;;2.15;;
75021;SDS011;63583;49.976;20.182;2023-05-10T09:27:47;3.70;;;2.38;;
75021;SDS011;63583;49.976;20.182;2023-05-10T09:30:17;3.05;;;2.10;;
75021;SDS011;63583;49.976;20.182;2023-05-10T09:32:50;2.95;;;1.98;;
75021;SDS011;63583;49.976;20.182;2023-05-10T09:35:20;4.50;;;2.15;;
75021;SDS011;63583;49.976;20.182;2023-05-10T09:37:48;3.97;;;2.40;;
75021;SDS011;63583;49.976;20.182;2023-05-10T09:40:15;4.28;;;2.03;;
75021;SDS011;63583;49.976;20.182;2023-05-10T09:42:42;3.63;;;2.30;;
75021;SDS011;63583;49.976;20.182;2023-05-10T09:47:42;4.30;;;1.95;;
75021;SDS011;63583;49.976;20.182;2023-05-10T09:50:07;3.72;;;2.10;;
75021;SDS011;63583;49.976;20.182;2023-05-10T09:55:21;3.75;;;1.83;;
75021;SDS011;63583;49.976;20.182;2023-05-10T09:57:48;4.60;;;2.08;;
75021;SDS011;63583;49.976;20.182;2023-05-10T10:00:18;3.45;;;1.95;;
75021;SDS011;63583;49.976;20.182;2023-05-10T10:02:45;4.35;;;2.28;;
75021;SDS011;63583;49.976;20.182;2023-05-10T10:05:12;4.30;;;2.13;;
75021;SDS011;63583;49.976;20.182;2023-05-10T10:07:37;3.78;;;1.98;;
75021;SDS011;63583;49.976;20.182;2023-05-10T10:10:03;4.53;;;2.10;;
75021;SDS011;63583;49.976;20.182;2023-05-10T10:12:30;2.92;;;1.80;;
75021;SDS011;63583;49.976;20.182;2023-05-10T10:14:56;3.20;;;1.90;;
75021;SDS011;63583;49.976;20.182;2023-05-10T10:17:22;5.00;;;2.20;;
75021;SDS011;63583;49.976;20.182;2023-05-10T10:19:53;3.20;;;1.90;;
75021;SDS011;63583;49.976;20.182;2023-05-10T10:22:20;3.63;;;1.83;;
75021;SDS011;63583;49.976;20.182;2023-05-10T10:24:45;4.05;;;1.92;;
75021;SDS011;63583;49.976;20.182;2023-05-10T10:33:27;4.30;;;2.78;;
75021;SDS011;63583;49.976;20.182;2023-05-10T10:35:54;6.65;;;3.35;;
75021;SDS011;63583;49.976;20.182;2023-05-10T10:38:23;3.80;;;2.85;;
75021;SDS011;63583;49.976;20.182;2023-05-10T10:40:48;3.58;;;2.30;;
75021;SDS011;63583;49.976;20.182;2023-05-10T10:43:27;3.42;;;2.03;;
75021;SDS011;63583;49.976;20.182;2023-05-10T10:51:38;5.57;;;2.22;;
75021;SDS011;63583;49.976;20.182;2023-05-10T10:54:10;3.10;;;1.95;;
75021;SDS011;63583;49.976;20.182;2023-05-10T10:56:36;3.50;;;2.10;;
75021;SDS011;63583;49.976;20.182;2023-05-10T10:59:02;3.75;;;1.98;;
75021;SDS011;63583;49.976;20.182;2023-05-10T11:01:34;3.40;;;2.33;;
75021;SDS011;63583;49.976;20.182;2023-05-10T11:06:29;3.30;;;1.83;;
75021;SDS011;63583;49.976;20.182;2023-05-10T11:08:58;3.45;;;2.17;;
75021;SDS011;63583;49.976;20.182;2023-05-10T11:11:24;3.85;;;2.22;;
75021;SDS011;63583;49.976;20.182;2023-05-10T11:13:50;2.63;;;1.92;;
75021;SDS011;63583;49.976;20.182;2023-05-10T11:16:23;3.20;;;1.77;;
75021;SDS011;63583;49.976;20.182;2023-05-10T11:21:19;5.22;;;2.33;;
75021;SDS011;63583;49.976;20.182;2023-05-10T11:26:10;3.80;;;2.20;;
75021;SDS011;63583;49.976;20.182;2023-05-10T11:28:46;3.40;;;1.95;;
75021;SDS011;63583;49.976;20.182;2023-05-10T11:31:14;3.35;;;1.50;;
75021;SDS011;63583;49.976;20.182;2023-05-10T11:33:48;4.40;;;1.90;;
75021;SDS011;63583;49.976;20.182;2023-05-10T11:36:16;3.28;;;1.83;;
75021;SDS011;63583;49.976;20.182;2023-05-10T11:38:43;3.30;;;1.98;;
75021;SDS011;63583;49.976;20.182;2023-05-10T11:41:10;4.03;;;1.98;;
75021;SDS011;63583;49.976;20.182;2023-05-10T11:43:40;2.85;;;1.45;;
75021;SDS011;63583;49.976;20.182;2023-05-10T11:46:10;2.63;;;1.80;;
75021;SDS011;63583;49.976;20.182;2023-05-10T11:48:40;2.67;;;1.67;;
75021;SDS011;63583;49.976;20.182;2023-05-10T11:51:10;3.42;;;1.90;;
75021;SDS011;63583;49.976;20.182;2023-05-10T11:53:36;5.47;;;2.10;;
75021;SDS011;63583;49.976;20.182;2023-05-10T11:56:05;4.95;;;2.08;;
75021;SDS011;63583;49.976;20.182;2023-05-10T11:58:35;2.95;;;1.60;;
75021;SDS011;63583;49.976;20.182;2023-05-10T12:01:03;4.75;;;2.10;;
75021;SDS011;63583;49.976;20.182;2023-05-10T12:03:29;3.20;;;1.77;;
75021;SDS011;63583;49.976;20.182;2023-05-10T12:05:56;2.95;;;1.80;;
75021;SDS011;63583;49.976;20.182;2023-05-10T12:08:23;4.43;;;1.90;;
75021;SDS011;63583;49.976;20.182;2023-05-10T12:10:50;3.35;;;1.80;;
75021;SDS011;63583;49.976;20.182;2023-05-10T12:13:16;3.00;;;2.05;;
75021;SDS011;63583;49.976;20.182;2023-05-10T12:15:42;4.22;;;1.70;;
75021;SDS011;63583;49.976;20.182;2023-05-10T12:18:09;3.83;;;1.67;;
75021;SDS011;63583;49.976;20.182;2023-05-10T12:20:35;2.45;;;1.50;;
75021;SDS011;63583;49.976;20.182;2023-05-10T12:23:01;3.45;;;2.10;;
75021;SDS011;63583;49.976;20.182;2023-05-10T12:25:36;3.42;;;1.80;;
75021;SDS011;63583;49.976;20.182;2023-05-10T12:28:03;4.88;;;2.30;;
75021;SDS011;63583;49.976;20.182;2023-05-10T12:30:31;3.95;;;2.10;;
75021;SDS011;63583;49.976;20.182;2023-05-10T12:33:01;3.47;;;1.90;;
75021;SDS011;63583;49.976;20.182;2023-05-10T12:35:32;11.57;;;4.63;;
75021;SDS011;63583;49.976;20.182;2023-05-10T12:37:58;3.08;;;1.80;;
75021;SDS011;63583;49.976;20.182;2023-05-10T12:40:24;2.38;;;1.65;;
75021;SDS011;63583;49.976;20.182;2023-05-10T12:42:50;4.35;;;2.33;;
75021;SDS011;63583;49.976;20.182;2023-05-10T12:45:17;4.15;;;2.30;;
75021;SDS011;63583;49.976;20.182;2023-05-10T12:47:43;2.95;;;2.00;;
75021;SDS011;63583;49.976;20.182;2023-05-10T12:50:09;3.47;;;1.90;;
75021;SDS011;63583;49.976;20.182;2023-05-10T12:52:35;2.58;;;1.50;;
75021;SDS011;63583;49.976;20.182;2023-05-10T12:55:01;2.97;;;1.73;;
75021;SDS011;63583;49.976;20.182;2023-05-10T12:57:28;3.75;;;2.05;;
75021;SDS011;63583;49.976;20.182;2023-05-10T12:59:54;3.67;;;1.88;;
75021;SDS011;63583;49.976;20.182;2023-05-10T13:02:20;2.92;;;1.75;;
75021;SDS011;63583;49.976;20.182;2023-05-10T13:04:46;4.50;;;2.10;;
75021;SDS011;63583;49.976;20.182;2023-05-10T13:07:13;3.45;;;1.83;;
75021;SDS011;63583;49.976;20.182;2023-05-10T13:09:39;3.03;;;1.88;;
75021;SDS011;63583;49.976;20.182;2023-05-10T13:12:05;5.88;;;2.10;;
75021;SDS011;63583;49.976;20.182;2023-05-10T13:14:31;3.80;;;2.20;;
75021;SDS011;63583;49.976;20.182;2023-05-10T13:16:56;3.13;;;1.88;;
75021;SDS011;63583;49.976;20.182;2023-05-10T13:19:22;3.20;;;2.20;;
75021;SDS011;63583;49.976;20.182;2023-05-10T13:21:48;2.90;;;1.60;;
75021;SDS011;63583;49.976;20.182;2023-05-10T13:24:13;4.25;;;2.28;;
75021;SDS011;63583;49.976;20.182;2023-05-10T13:26:39;3.13;;;1.90;;
75021;SDS011;63583;49.976;20.182;2023-05-10T13:29:06;6.72;;;2.10;;
75021;SDS011;63583;49.976;20.182;2023-05-10T13:31:33;3.13;;;1.73;;
75021;SDS011;63583;49.976;20.182;2023-05-10T13:33:59;4.35;;;1.80;;
75021;SDS011;63583;49.976;20.182;2023-05-10T13:36:25;4.15;;;2.00;;
75021;SDS011;63583;49.976;20.182;2023-05-10T13:38:51;3.92;;;2.92;;
75021;SDS011;63583;49.976;20.182;2023-05-10T13:41:17;4.28;;;1.60;;
75021;SDS011;63583;49.976;20.182;2023-05-10T13:43:43;5.60;;;1.70;;
75021;SDS011;63583;49.976;20.182;2023-05-10T13:46:08;4.25;;;2.47;;
75021;SDS011;63583;49.976;20.182;2023-05-10T13:48:34;3.20;;;2.05;;
75021;SDS011;63583;49.976;20.182;2023-05-10T13:51:01;2.95;;;1.80;;
75021;SDS011;63583;49.976;20.182;2023-05-10T13:53:27;3.95;;;1.73;;
75021;SDS011;63583;49.976;20.182;2023-05-10T13:55:53;2.67;;;1.70;;
75021;SDS011;63583;49.976;20.182;2023-05-10T13:58:18;3.05;;;1.80;;
75021;SDS011;63583;49.976;20.182;2023-05-10T14:00:44;5.15;;;2.00;;
75021;SDS011;63583;49.976;20.182;2023-05-10T14:03:10;3.80;;;1.95;;
75021;SDS011;63583;49.976;20.182;2023-05-10T14:05:36;4.10;;;2.10;;
75021;SDS011;63583;49.976;20.182;2023-05-10T14:08:01;5.10;;;2.70;;
75021;SDS011;63583;49.976;20.182;2023-05-10T14:10:27;4.25;;;1.95;;
75021;SDS011;63583;49.976;20.182;2023-05-10T14:12:53;3.28;;;1.63;;
75021;SDS011;63583;49.976;20.182;2023-05-10T14:15:19;4.30;;;2.13;;
75021;SDS011;63583;49.976;20.182;2023-05-10T14:17:44;2.65;;;1.73;;
75021;SDS011;63583;49.976;20.182;2023-05-10T14:20:10;3.20;;;1.80;;
75021;SDS011;63583;49.976;20.182;2023-05-10T14:22:36;3.22;;;1.88;;
75021;SDS011;63583;49.976;20.182;2023-05-10T14:25:02;2.83;;;1.70;;
75021;SDS011;63583;49.976;20.182;2023-05-10T14:27:28;4.05;;;1.67;;
75021;SDS011;63583;49.976;20.182;2023-05-10T14:29:53;4.50;;;1.80;;
75021;SDS011;63583;49.976;20.182;2023-05-10T14:32:19;4.88;;;2.20;;
75021;SDS011;63583;49.976;20.182;2023-05-10T14:34:45;3.33;;;1.98;;
75021;SDS011;63583;49.976;20.182;2023-05-10T14:37:11;2.83;;;1.80;;
75021;SDS011;63583;49.976;20.182;2023-05-10T14:39:36;2.83;;;1.67;;
75021;SDS011;63583;49.976;20.182;2023-05-10T14:42:03;4.35;;;1.80;;
75021;SDS011;63583;49.976;20.182;2023-05-10T14:44:29;3.28;;;2.10;;
75021;SDS011;63583;49.976;20.182;2023-05-10T14:46:54;4.25;;;1.90;;
75021;SDS011;63583;49.976;20.182;2023-05-10T14:49:21;2.95;;;2.05;;
75021;SDS011;63583;49.976;20.182;2023-05-10T14:51:48;5.45;;;2.63;;
75021;SDS011;63583;49.976;20.182;2023-05-10T14:54:14;4.72;;;2.08;;
75021;SDS011;63583;49.976;20.182;2023-05-10T14:56:39;3.13;;;1.92;;
75021;SDS011;63583;49.976;20.182;2023-05-10T14:59:06;3.45;;;1.90;;
75021;SDS011;63583;49.976;20.182;2023-05-10T15:01:32;2.97;;;1.80;;
75021;SDS011;63583;49.976;20.182;2023-05-10T15:04:02;2.95;;;1.70;;
75021;SDS011;63583;49.976;20.182;2023-05-10T15:06:32;3.97;;;2.00;;
75021;SDS011;63583;49.976;20.182;2023-05-10T15:08:59;3.08;;;2.00;;
75021;SDS011;63583;49.976;20.182;2023-05-10T15:11:25;3.40;;;1.88;;
75021;SDS011;63583;49.976;20.182;2023-05-10T15:13:51;4.43;;;2.03;;
75021;SDS011;63583;49.976;20.182;2023-05-10T15:16:17;3.50;;;2.28;;